createdAt,value
2023-03-22T00:00:17.461Z,1002.51
2023-03-22T00:01:17.651Z,1002.52
2023-03-22T00:02:17.881Z,1002.41
2023-03-22T00:03:18.050Z,1002.50
2023-03-22T00:04:18.247Z,1002.43
2023-03-22T00:05:18.392Z,1002.41
2023-03-22T00:06:18.562Z,1002.40
2023-03-22T00:07:18.738Z,1002.42
2023-03-22T00:08:18.941Z,1002.42
2023-03-22T00:09:19.104Z,1002.41
2023-03-22T00:10:19.290Z,1002.35
2023-03-22T00:11:19.461Z,1002.28
2023-03-22T00:12:19.606Z,1002.29
2023-03-22T00:13:20.741Z,1002.35
2023-03-22T00:14:20.958Z,1002.38
2023-03-22T00:15:20.221Z,1002.33
2023-03-22T00:16:20.455Z,1002.36
2023-03-22T00:17:20.514Z,1002.35
2023-03-22T00:18:20.955Z,1002.40
2023-03-22T00:19:20.878Z,1002.38
2023-03-22T00:20:21.045Z,1002.35
2023-03-22T00:21:21.947Z,1002.36
2023-03-22T00:22:21.358Z,1002.37
2023-03-22T00:23:21.513Z,1002.35
2023-03-22T00:24:22.406Z,1002.36
2023-03-22T00:25:21.784Z,1002.26
2023-03-22T00:26:21.961Z,1002.24
2023-03-22T00:27:22.895Z,1002.24
2023-03-22T00:28:22.299Z,1002.25
2023-03-22T00:29:22.449Z,1002.21
2023-03-22T00:30:22.586Z,1002.17
2023-03-22T00:31:22.768Z,1002.24
2023-03-22T00:32:22.940Z,1002.20
2023-03-22T00:33:23.897Z,1002.20
2023-03-22T00:34:23.900Z,1002.16
2023-03-22T00:35:23.574Z,1002.21
2023-03-22T00:36:24.900Z,1002.14
2023-03-22T00:37:23.912Z,1002.10
2023-03-22T00:38:39.561Z,1002.14
2023-03-22T00:39:27.408Z,1002.15
2023-03-22T00:40:25.911Z,1002.16
2023-03-22T00:41:25.408Z,1002.14
2023-03-22T00:42:24.674Z,1002.14
2023-03-22T00:43:24.841Z,1002.10
2023-03-22T00:44:26.451Z,1002.09
2023-03-22T00:45:25.213Z,1001.98
2023-03-22T00:46:25.538Z,1002.13
2023-03-22T00:47:25.602Z,1002.09
2023-03-22T00:48:25.852Z,1002.07
2023-03-22T00:49:46.919Z,1001.98
2023-03-22T00:50:27.140Z,1002.03
2023-03-22T00:51:26.293Z,1002.04
2023-03-22T00:52:26.458Z,1002.03
2023-03-22T00:53:26.617Z,1002.02
2023-03-22T00:54:27.447Z,1002.02
2023-03-22T00:55:26.972Z,1002.03
2023-03-22T00:56:27.168Z,1002.00
2023-03-22T00:57:27.377Z,1002.03
2023-03-22T00:58:27.574Z,1002.00
2023-03-22T00:59:28.454Z,1001.93
2023-03-22T01:00:29.405Z,1001.88
2023-03-22T01:01:28.585Z,1001.90
2023-03-22T01:02:28.911Z,1001.89
2023-03-22T01:03:29.450Z,1001.83
2023-03-22T01:04:28.743Z,1001.84
2023-03-22T01:05:28.918Z,1001.89
2023-03-22T01:06:29.112Z,1001.82
2023-03-22T01:07:29.290Z,1001.74
2023-03-22T01:08:30.405Z,1001.74
2023-03-22T01:09:29.690Z,1001.76
2023-03-22T01:10:29.877Z,1001.77
2023-03-22T01:11:30.064Z,1001.68
2023-03-22T01:12:30.248Z,1001.65
2023-03-22T01:13:30.949Z,1001.71
2023-03-22T01:14:31.407Z,1001.66
2023-03-22T01:15:30.800Z,1001.56
2023-03-22T01:16:32.461Z,1001.60
2023-03-22T01:17:31.141Z,1001.60
2023-03-22T01:18:31.304Z,1001.53
2023-03-22T01:19:32.351Z,1001.59
2023-03-22T01:20:32.412Z,1001.58
2023-03-22T01:21:31.809Z,1001.57
2023-03-22T01:22:32.020Z,1001.55
2023-03-22T01:23:32.964Z,1001.53
2023-03-22T01:24:32.409Z,1001.60
2023-03-22T01:25:34.410Z,1001.56
2023-03-22T01:26:32.815Z,1001.53
2023-03-22T01:27:32.982Z,1001.54
2023-03-22T01:28:33.953Z,1001.52
2023-03-22T01:29:33.344Z,1001.49
2023-03-22T01:30:33.575Z,1001.54
2023-03-22T01:31:33.641Z,1001.53
2023-03-22T01:32:33.805Z,1001.52
2023-03-22T01:33:34.942Z,1001.46
2023-03-22T01:34:34.185Z,1001.46
2023-03-22T01:35:34.478Z,1001.46
2023-03-22T01:36:34.556Z,1001.49
2023-03-22T01:37:34.691Z,1001.41
2023-03-22T01:38:35.442Z,1001.45
2023-03-22T01:39:34.996Z,1001.43
2023-03-22T01:40:35.928Z,1001.41
2023-03-22T01:41:35.326Z,1001.37
2023-03-22T01:42:36.422Z,1001.40
2023-03-22T01:43:37.431Z,1001.38
2023-03-22T01:44:35.968Z,1001.40
2023-03-22T01:45:36.152Z,1001.41
2023-03-22T01:46:36.334Z,1001.32
2023-03-22T01:47:36.540Z,1001.34
2023-03-22T01:48:36.740Z,1001.40
2023-03-22T01:49:36.931Z,1001.32
2023-03-22T01:50:37.331Z,1001.36
2023-03-22T01:51:37.273Z,1001.37
2023-03-22T01:52:37.467Z,1001.33
2023-03-22T01:53:37.633Z,1001.40
2023-03-22T01:54:37.808Z,1001.33
2023-03-22T01:55:38.024Z,1001.33
2023-03-22T01:56:38.795Z,1001.31
2023-03-22T01:57:38.341Z,1001.30
2023-03-22T01:58:38.527Z,1001.34
2023-03-22T01:59:38.701Z,1001.29
2023-03-22T02:00:39.741Z,1001.33
2023-03-22T02:01:39.088Z,1001.31
2023-03-22T02:02:39.310Z,1001.30
2023-03-22T02:03:39.384Z,1001.22
2023-03-22T02:04:39.549Z,1001.25
2023-03-22T02:05:39.974Z,1001.30
2023-03-22T02:06:39.887Z,1001.29
2023-03-22T02:07:40.092Z,1001.23
2023-03-22T02:08:40.835Z,1001.22
2023-03-22T02:09:40.381Z,1001.20
2023-03-22T02:10:40.755Z,1001.23
2023-03-22T02:11:40.977Z,1001.23
2023-03-22T02:12:40.916Z,1001.33
2023-03-22T02:13:41.104Z,1001.19
2023-03-22T02:14:41.294Z,1001.20
2023-03-22T02:15:41.502Z,1001.27
2023-03-22T02:16:41.675Z,1001.29
2023-03-22T02:17:41.845Z,1001.22
2023-03-22T02:18:42.520Z,1001.20
2023-03-22T02:19:42.175Z,1001.20
2023-03-22T02:20:42.925Z,1001.20
2023-03-22T02:21:42.596Z,1001.12
2023-03-22T02:22:43.925Z,1001.08
2023-03-22T02:23:42.983Z,1001.15
2023-03-22T02:24:44.001Z,1001.17
2023-03-22T02:25:44.960Z,1001.11
2023-03-22T02:26:44.428Z,1001.05
2023-03-22T02:27:43.572Z,1001.05
2023-03-22T02:28:43.739Z,1001.07
2023-03-22T02:29:45.943Z,1001.06
2023-03-22T02:30:44.055Z,1001.11
2023-03-22T02:31:44.204Z,1001.14
2023-03-22T02:32:44.357Z,1001.11
2023-03-22T02:33:44.491Z,1001.09
2023-03-22T02:34:44.672Z,1001.10
2023-03-22T02:35:44.852Z,1001.10
2023-03-22T02:36:45.016Z,1001.13
2023-03-22T02:37:45.159Z,1001.20
2023-03-22T02:38:45.950Z,1001.18
2023-03-22T02:39:45.409Z,1001.19
2023-03-22T02:40:46.936Z,1001.13
2023-03-22T02:41:45.670Z,1001.08
2023-03-22T02:42:45.804Z,1001.09
2023-03-22T02:43:46.085Z,1001.09
2023-03-22T02:44:47.216Z,1001.14
2023-03-22T02:45:47.307Z,1001.04
2023-03-22T02:46:46.719Z,1001.13
2023-03-22T02:47:46.885Z,1001.10
2023-03-22T02:48:47.045Z,1001.04
2023-03-22T02:49:47.192Z,1001.08
2023-03-22T02:50:47.933Z,1001.10
2023-03-22T02:51:47.558Z,1001.11
2023-03-22T02:52:48.438Z,1001.11
2023-03-22T02:53:48.473Z,1001.01
2023-03-22T02:54:48.096Z,1001.05
2023-03-22T02:55:48.251Z,1001.08
2023-03-22T02:56:48.395Z,1001.11
2023-03-22T02:57:48.604Z,1001.10
2023-03-22T02:58:48.810Z,1001.06
2023-03-22T02:59:48.998Z,1001.04
2023-03-22T03:00:49.571Z,1001.10
2023-03-22T03:01:49.423Z,1001.11
2023-03-22T03:02:49.631Z,1001.11
2023-03-22T03:03:49.988Z,1001.07
2023-03-22T03:04:49.964Z,1001.15
2023-03-22T03:05:50.952Z,1001.07
2023-03-22T03:06:51.435Z,1001.08
2023-03-22T03:07:50.587Z,1001.13
2023-03-22T03:08:50.795Z,1001.06
2023-03-22T03:09:50.984Z,1001.08
2023-03-22T03:10:51.152Z,1001.09
2023-03-22T03:11:52.948Z,1001.09
2023-03-22T03:12:51.981Z,1001.00
2023-03-22T03:13:51.692Z,1001.05
2023-03-22T03:14:52.807Z,1001.00
2023-03-22T03:15:52.135Z,1001.02
2023-03-22T03:16:52.205Z,1001.03
2023-03-22T03:17:52.991Z,1000.99
2023-03-22T03:18:54.307Z,1000.96
2023-03-22T03:19:53.439Z,1000.98
2023-03-22T03:20:53.434Z,1001.01
2023-03-22T03:21:53.933Z,1000.97
2023-03-22T03:22:54.230Z,1000.96
2023-03-22T03:23:53.937Z,1001.00
2023-03-22T03:24:53.629Z,1000.90
2023-03-22T03:25:53.868Z,1000.92
2023-03-22T03:26:54.088Z,1000.89
2023-03-22T03:27:55.439Z,1000.92
2023-03-22T03:28:54.490Z,1000.90
2023-03-22T03:29:54.682Z,1000.95
2023-03-22T03:30:54.926Z,1000.91
2023-03-22T03:31:55.129Z,1000.97
2023-03-22T03:32:55.937Z,1000.90
2023-03-22T03:33:55.383Z,1000.90
2023-03-22T03:34:56.610Z,1000.84
2023-03-22T03:35:55.843Z,1000.87
2023-03-22T03:36:56.955Z,1000.95
2023-03-22T03:37:57.448Z,1000.86
2023-03-22T03:38:56.944Z,1000.88
2023-03-22T03:39:57.323Z,1000.87
2023-03-22T03:40:56.647Z,1000.86
2023-03-22T03:41:57.443Z,1000.93
2023-03-22T03:42:57.089Z,1000.78
2023-03-22T03:43:57.312Z,1000.94
2023-03-22T03:44:58.945Z,1000.81
2023-03-22T03:45:58.547Z,1000.73
2023-03-22T03:46:57.852Z,1000.84
2023-03-22T03:47:58.935Z,1000.93
2023-03-22T03:48:58.269Z,1000.85
2023-03-22T03:50:00.311Z,1000.84
2023-03-22T03:50:58.693Z,1000.82
2023-03-22T03:51:58.888Z,1000.86
2023-03-22T03:52:59.094Z,1000.88
2023-03-22T03:53:59.955Z,1000.87
2023-03-22T03:54:59.544Z,1000.80
2023-03-22T03:56:00.517Z,1000.80
2023-03-22T03:57:01.204Z,1000.77
2023-03-22T03:58:00.024Z,1000.82
2023-03-22T03:59:00.232Z,1000.80
2023-03-22T04:00:00.481Z,1000.84
2023-03-22T04:01:01.489Z,1000.82
2023-03-22T04:02:00.945Z,1000.82
2023-03-22T04:03:01.950Z,1000.83
2023-03-22T04:04:01.972Z,1000.78
2023-03-22T04:05:01.478Z,1000.83
2023-03-22T04:06:01.688Z,1000.82
2023-03-22T04:07:01.904Z,1000.76
2023-03-22T04:08:02.077Z,1000.84
2023-03-22T04:09:02.275Z,1000.81
2023-03-22T04:10:02.445Z,1000.88
2023-03-22T04:11:02.641Z,1000.87
2023-03-22T04:12:03.821Z,1000.89
2023-03-22T04:13:02.969Z,1000.89
2023-03-22T04:14:03.180Z,1000.95
2023-03-22T04:15:03.369Z,1000.93
2023-03-22T04:16:04.464Z,1000.89
2023-03-22T04:17:04.460Z,1000.88
2023-03-22T04:18:03.773Z,1000.88
2023-03-22T04:19:04.822Z,1000.91
2023-03-22T04:20:06.018Z,1000.95
2023-03-22T04:21:05.239Z,1000.97
2023-03-22T04:22:04.421Z,1000.90
2023-03-22T04:23:04.597Z,1000.94
2023-03-22T04:24:06.464Z,1000.90
2023-03-22T04:25:04.968Z,1000.90
2023-03-22T04:26:05.999Z,1000.86
2023-03-22T04:27:05.515Z,1000.89
2023-03-22T04:28:06.464Z,1000.85
2023-03-22T04:29:05.726Z,1000.89
2023-03-22T04:30:05.904Z,1000.86
2023-03-22T04:31:06.154Z,1000.83
2023-03-22T04:32:06.966Z,1000.91
2023-03-22T04:33:07.392Z,1000.93
2023-03-22T04:34:06.680Z,1000.86
2023-03-22T04:35:06.875Z,1000.81
2023-03-22T04:36:07.066Z,1000.80
2023-03-22T04:37:07.975Z,1000.81
2023-03-22T04:38:07.386Z,1000.78
2023-03-22T04:39:08.955Z,1000.81
2023-03-22T04:40:07.710Z,1000.85
2023-03-22T04:41:07.895Z,1000.82
2023-03-22T04:42:09.463Z,1000.88
2023-03-22T04:43:08.213Z,1000.83
2023-03-22T04:44:08.418Z,1000.91
2023-03-22T04:45:09.463Z,1000.85
2023-03-22T04:46:08.765Z,1000.79
2023-03-22T04:47:08.849Z,1000.85
2023-03-22T04:48:10.014Z,1000.81
2023-03-22T04:49:09.147Z,1000.79
2023-03-22T04:50:09.358Z,1000.88
2023-03-22T04:51:09.540Z,1000.80
2023-03-22T04:52:11.966Z,1000.84
2023-03-22T04:53:09.948Z,1000.86
2023-03-22T04:54:10.094Z,1000.87
2023-03-22T04:55:10.257Z,1000.81
2023-03-22T04:56:10.442Z,1000.85
2023-03-22T04:57:11.456Z,1000.85
2023-03-22T04:58:10.718Z,1000.93
2023-03-22T04:59:11.404Z,1001.06
2023-03-22T05:00:12.970Z,1000.93
2023-03-22T05:01:12.050Z,1000.93
2023-03-22T05:02:11.469Z,1000.88
2023-03-22T05:03:11.689Z,1000.92
2023-03-22T05:04:11.828Z,1001.08
2023-03-22T05:05:12.018Z,1001.00
2023-03-22T05:06:12.960Z,1001.09
2023-03-22T05:07:13.013Z,1001.03
2023-03-22T05:08:12.539Z,1001.07
2023-03-22T05:09:13.508Z,1000.95
2023-03-22T05:10:12.950Z,1000.84
2023-03-22T05:11:14.004Z,1000.76
2023-03-22T05:12:13.278Z,1000.91
2023-03-22T05:13:13.433Z,1000.85
2023-03-22T05:14:14.590Z,1000.89
2023-03-22T05:15:13.761Z,1000.97
2023-03-22T05:16:14.011Z,1000.96
2023-03-22T05:17:14.088Z,1000.90
2023-03-22T05:18:14.292Z,1000.92
2023-03-22T05:19:15.012Z,1000.95
2023-03-22T05:20:14.684Z,1000.99
2023-03-22T05:21:16.472Z,1000.80
2023-03-22T05:22:14.983Z,1000.88
2023-03-22T05:23:15.180Z,1000.88
2023-03-22T05:24:15.969Z,1000.74
2023-03-22T05:25:15.519Z,1000.75
2023-03-22T05:26:17.471Z,1000.85
2023-03-22T05:27:15.846Z,1000.86
2023-03-22T05:28:16.974Z,1000.94
2023-03-22T05:29:16.260Z,1000.85
2023-03-22T05:30:16.464Z,1000.79
2023-03-22T05:31:17.503Z,1000.83
2023-03-22T05:32:16.787Z,1000.87
2023-03-22T05:33:16.946Z,1000.93
2023-03-22T05:34:20.471Z,1000.77
2023-03-22T05:35:17.402Z,1000.77
2023-03-22T05:36:17.434Z,1000.85
2023-03-22T05:37:18.472Z,1000.77
2023-03-22T05:38:17.728Z,1000.83
2023-03-22T05:39:19.475Z,1000.71
2023-03-22T05:40:18.090Z,1000.83
2023-03-22T05:41:18.975Z,1000.74
2023-03-22T05:42:18.508Z,1000.74
2023-03-22T05:43:18.674Z,1000.66
2023-03-22T05:44:19.346Z,1000.68
2023-03-22T05:45:19.531Z,1000.70
2023-03-22T05:46:19.931Z,1000.67
2023-03-22T05:47:19.394Z,1000.59
2023-03-22T05:48:20.532Z,1000.64
2023-03-22T05:49:19.756Z,1000.61
2023-03-22T05:50:19.896Z,1000.59
2023-03-22T05:51:20.029Z,1000.45
2023-03-22T05:52:20.189Z,1000.42
2023-03-22T05:53:20.986Z,1000.34
2023-03-22T05:54:20.513Z,1000.39
2023-03-22T05:55:20.662Z,1000.46
2023-03-22T05:56:21.145Z,1000.31
2023-03-22T05:57:22.986Z,1000.31
2023-03-22T05:58:21.216Z,1000.25
2023-03-22T05:59:21.382Z,1000.22
2023-03-22T06:00:22.026Z,1000.13
2023-03-22T06:01:21.664Z,1000.12
2023-03-22T06:02:21.844Z,1000.09
2023-03-22T06:03:23.029Z,1000.02
2023-03-22T06:04:22.990Z,999.94
2023-03-22T06:05:23.489Z,999.81
2023-03-22T06:06:22.510Z,999.79
2023-03-22T06:07:22.625Z,999.53
2023-03-22T06:08:25.370Z,999.06
2023-03-22T06:09:23.000Z,998.50
2023-03-22T06:10:24.490Z,998.08
2023-03-22T06:11:23.354Z,997.60
2023-03-22T06:12:25.488Z,997.33
2023-03-22T06:13:25.079Z,997.05
2023-03-22T06:14:24.529Z,996.83
2023-03-22T06:15:25.025Z,996.75
2023-03-22T06:16:25.291Z,996.68
2023-03-22T06:17:24.440Z,996.70
2023-03-22T06:18:25.510Z,996.79
2023-03-22T06:19:24.761Z,996.82
2023-03-22T06:20:24.912Z,996.48
2023-03-22T06:21:25.995Z,996.04
2023-03-22T06:22:25.239Z,995.81
2023-03-22T06:23:25.399Z,996.01
2023-03-22T06:24:25.552Z,996.22
2023-03-22T06:25:25.676Z,996.53
2023-03-22T06:26:25.843Z,996.69
2023-03-22T06:27:25.980Z,996.92
2023-03-22T06:28:27.990Z,996.97
2023-03-22T06:29:26.367Z,997.26
2023-03-22T06:30:27.681Z,997.43
2023-03-22T06:31:26.710Z,997.44
2023-03-22T06:32:26.892Z,997.31
2023-03-22T06:33:27.050Z,997.37
2023-03-22T06:34:27.255Z,997.37
2023-03-22T06:35:27.429Z,997.50
2023-03-22T06:36:27.613Z,997.59
2023-03-22T06:37:28.506Z,997.75
2023-03-22T06:38:28.047Z,997.84
2023-03-22T06:39:28.541Z,997.95
2023-03-22T06:40:28.506Z,998.14
2023-03-22T06:41:28.690Z,998.18
2023-03-22T06:42:28.904Z,998.26
2023-03-22T06:43:30.501Z,998.32
2023-03-22T06:44:29.266Z,998.35
2023-03-22T06:45:29.453Z,998.37
2023-03-22T06:46:29.760Z,998.35
2023-03-22T06:47:31.043Z,998.48
2023-03-22T06:48:30.860Z,998.55
2023-03-22T06:49:30.279Z,998.40
2023-03-22T06:50:31.006Z,998.46
2023-03-22T06:51:31.499Z,998.47
2023-03-22T06:52:30.905Z,998.41
2023-03-22T06:53:31.089Z,998.38
2023-03-22T06:54:32.029Z,998.37
2023-03-22T06:55:31.424Z,998.32
2023-03-22T06:56:31.593Z,998.25
2023-03-22T06:57:31.791Z,998.24
2023-03-22T06:58:32.532Z,998.12
2023-03-22T06:59:32.184Z,998.08
2023-03-22T07:00:32.480Z,997.62
2023-03-22T07:01:32.593Z,997.47
2023-03-22T07:02:32.687Z,997.32
2023-03-22T07:03:32.873Z,997.45
2023-03-22T07:04:33.115Z,997.27
2023-03-22T07:05:33.257Z,997.49
2023-03-22T07:06:34.048Z,997.70
2023-03-22T07:07:34.497Z,997.75
2023-03-22T07:08:33.815Z,997.85
2023-03-22T07:09:34.059Z,997.78
2023-03-22T07:10:34.267Z,997.94
2023-03-22T07:11:34.452Z,997.94
2023-03-22T07:12:34.670Z,998.01
2023-03-22T07:13:36.442Z,997.97
2023-03-22T07:14:35.553Z,998.12
2023-03-22T07:15:35.261Z,998.31
2023-03-22T07:16:37.011Z,998.28
2023-03-22T07:17:35.511Z,998.43
2023-03-22T07:18:35.712Z,998.41
2023-03-22T07:19:35.958Z,998.50
2023-03-22T07:20:38.210Z,998.41
2023-03-22T07:21:36.353Z,998.47
2023-03-22T07:22:36.536Z,998.56
2023-03-22T07:23:36.733Z,998.39
2023-03-22T07:24:44.597Z,998.52
2023-03-22T07:25:39.063Z,998.43
2023-03-22T07:26:37.313Z,998.35
2023-03-22T07:27:37.504Z,998.17
2023-03-22T07:28:38.561Z,998.13
2023-03-22T07:29:38.995Z,998.10
2023-03-22T07:30:39.813Z,997.97
2023-03-22T07:31:38.237Z,997.90
2023-03-22T07:32:39.088Z,997.64
2023-03-22T07:33:38.554Z,997.60
2023-03-22T07:34:38.758Z,997.41
2023-03-22T07:35:38.948Z,997.17
2023-03-22T07:36:40.042Z,996.73
2023-03-22T07:37:39.353Z,996.84
2023-03-22T07:38:39.561Z,996.73
2023-03-22T07:39:39.743Z,996.70
2023-03-22T07:40:40.252Z,996.86
2023-03-22T07:41:40.102Z,996.90
2023-03-22T07:42:41.017Z,996.97
2023-03-22T07:43:52.736Z,997.04
2023-03-22T07:44:43.056Z,997.13
2023-03-22T07:45:40.814Z,997.21
2023-03-22T07:46:40.995Z,997.30
2023-03-22T07:47:41.685Z,997.40
2023-03-22T07:48:41.391Z,997.35
2023-03-22T07:49:41.592Z,997.43
2023-03-22T07:50:42.209Z,997.35
2023-03-22T07:51:42.753Z,997.41
2023-03-22T07:52:43.022Z,997.44
2023-03-22T07:53:42.321Z,997.49
2023-03-22T07:54:42.511Z,997.49
2023-03-22T07:55:43.737Z,997.50
2023-03-22T07:56:42.946Z,997.49
2023-03-22T07:57:43.090Z,997.37
2023-03-22T07:58:43.236Z,997.41
2023-03-22T07:59:43.320Z,997.34
2023-03-22T08:00:44.029Z,997.29
2023-03-22T08:01:43.755Z,997.13
2023-03-22T08:02:43.925Z,997.11
2023-03-22T08:03:44.006Z,997.14
2023-03-22T08:04:44.226Z,997.10
2023-03-22T08:05:44.416Z,997.09
2023-03-22T08:06:44.592Z,997.14
2023-03-22T08:07:46.386Z,997.11
2023-03-22T08:08:44.885Z,997.00
2023-03-22T08:09:45.098Z,996.82
2023-03-22T08:10:46.081Z,996.75
2023-03-22T08:11:46.072Z,996.74
2023-03-22T08:12:45.634Z,996.72
2023-03-22T08:13:46.387Z,996.50
2023-03-22T08:14:46.568Z,996.31
2023-03-22T08:15:46.223Z,996.19
2023-03-22T08:17:19.811Z,996.21
2023-03-22T08:17:46.602Z,996.29
2023-03-22T08:18:46.769Z,996.34
2023-03-22T08:19:46.938Z,996.50
2023-03-22T08:20:47.114Z,996.57
2023-03-22T08:21:47.489Z,996.65
2023-03-22T08:22:47.432Z,996.72
2023-03-22T08:23:48.865Z,996.78
2023-03-22T08:24:49.610Z,996.77
2023-03-22T08:25:47.968Z,996.73
2023-03-22T08:26:49.101Z,996.78
2023-03-22T08:27:48.623Z,996.76
2023-03-22T08:28:48.523Z,996.68
2023-03-22T08:29:50.433Z,996.72
2023-03-22T08:30:48.810Z,996.65
2023-03-22T08:31:49.632Z,996.46
2023-03-22T08:32:49.673Z,996.20
2023-03-22T08:33:49.333Z,996.09
2023-03-22T08:34:49.548Z,996.17
2023-03-22T08:35:49.765Z,996.11
2023-03-22T08:36:49.861Z,995.95
2023-03-22T08:37:51.474Z,995.87
2023-03-22T08:38:50.253Z,995.93
2023-03-22T08:39:50.426Z,995.99
2023-03-22T08:40:50.633Z,996.16
2023-03-22T08:41:50.799Z,996.24
2023-03-22T08:42:50.966Z,996.40
2023-03-22T08:43:51.138Z,996.45
2023-03-22T08:44:53.075Z,996.53
2023-03-22T08:45:51.520Z,996.61
2023-03-22T08:46:53.429Z,996.56
2023-03-22T08:47:51.877Z,996.50
2023-03-22T08:48:51.970Z,996.47
2023-03-22T08:49:53.087Z,996.29
2023-03-22T08:50:53.572Z,996.17
2023-03-22T08:51:53.571Z,995.93
2023-03-22T08:52:52.861Z,995.77
2023-03-22T08:53:53.088Z,995.51
2023-03-22T08:54:54.078Z,995.50
2023-03-22T08:55:53.482Z,995.32
2023-03-22T08:56:53.712Z,995.11
2023-03-22T08:57:53.936Z,995.00
2023-03-22T08:58:54.152Z,994.95
2023-03-22T08:59:54.360Z,994.99
2023-03-22T09:00:55.159Z,995.08
2023-03-22T09:01:54.801Z,994.85
2023-03-22T09:02:54.929Z,994.71
2023-03-22T09:03:56.636Z,994.80
2023-03-22T09:04:55.417Z,994.74
2023-03-22T09:05:56.131Z,994.89
2023-03-22T09:06:57.082Z,994.79
2023-03-22T09:08:00.561Z,994.90
2023-03-22T09:08:57.011Z,994.91
2023-03-22T09:09:56.166Z,994.99
2023-03-22T09:10:57.116Z,994.79
2023-03-22T09:11:56.576Z,994.68
2023-03-22T09:12:56.791Z,994.76
2023-03-22T09:13:56.998Z,994.96
2023-03-22T09:14:57.222Z,994.99
2023-03-22T09:15:57.433Z,994.98
2023-03-22T09:16:57.647Z,995.06
2023-03-22T09:17:57.848Z,995.17
2023-03-22T09:18:59.600Z,995.24
2023-03-22T09:20:11.654Z,995.37
2023-03-22T09:21:00.488Z,995.25
2023-03-22T09:21:59.125Z,995.33
2023-03-22T09:22:58.746Z,995.28
2023-03-22T09:23:58.910Z,995.22
2023-03-22T09:24:59.088Z,995.27
2023-03-22T09:25:59.272Z,995.31
2023-03-22T09:26:59.430Z,995.41
2023-03-22T09:27:59.589Z,995.44
2023-03-22T09:28:59.755Z,995.48
2023-03-22T09:30:00.627Z,995.41
2023-03-22T09:31:00.225Z,995.34
2023-03-22T09:32:01.086Z,995.42
2023-03-22T09:33:01.125Z,995.35
2023-03-22T09:34:02.107Z,995.40
2023-03-22T09:35:00.850Z,995.39
2023-03-22T09:36:01.066Z,995.29
2023-03-22T09:37:01.216Z,995.12
2023-03-22T09:38:01.398Z,995.13
2023-03-22T09:39:01.592Z,995.02
2023-03-22T09:40:01.795Z,995.11
2023-03-22T09:41:02.663Z,994.94
2023-03-22T09:42:02.173Z,994.84
2023-03-22T09:43:02.340Z,994.89
2023-03-22T09:44:02.509Z,994.66
2023-03-22T09:45:02.673Z,994.54
2023-03-22T09:46:04.470Z,994.56
2023-03-22T09:47:03.070Z,994.40
2023-03-22T09:48:03.408Z,994.29
2023-03-22T09:49:04.463Z,994.40
2023-03-22T09:50:04.092Z,994.39
2023-03-22T09:51:03.769Z,994.37
2023-03-22T09:52:03.988Z,994.39
2023-03-22T09:53:04.649Z,994.41
2023-03-22T09:54:04.957Z,994.29
2023-03-22T09:55:04.381Z,994.24
2023-03-22T09:56:05.458Z,994.30
2023-03-22T09:57:04.764Z,994.13
2023-03-22T09:58:04.927Z,993.98
2023-03-22T09:59:05.096Z,994.07
2023-03-22T10:00:05.266Z,994.08
2023-03-22T10:01:06.717Z,994.15
2023-03-22T10:02:05.997Z,994.00
2023-03-22T10:03:06.614Z,993.96
2023-03-22T10:04:06.031Z,994.01
2023-03-22T10:05:06.233Z,993.89
2023-03-22T10:06:07.137Z,993.89
2023-03-22T10:07:07.604Z,993.77
2023-03-22T10:08:09.598Z,993.68
2023-03-22T10:09:07.598Z,993.53
2023-03-22T10:10:07.131Z,993.45
2023-03-22T10:11:08.145Z,993.47
2023-03-22T10:12:08.099Z,993.31
2023-03-22T10:13:07.765Z,993.19
2023-03-22T10:14:07.935Z,993.09
2023-03-22T10:15:08.604Z,992.98
2023-03-22T10:16:08.319Z,992.90
2023-03-22T10:17:08.657Z,992.81
2023-03-22T10:18:08.603Z,992.93
2023-03-22T10:19:09.649Z,992.85
2023-03-22T10:20:08.937Z,992.87
2023-03-22T10:21:09.121Z,992.91
2023-03-22T10:22:10.103Z,992.98
2023-03-22T10:23:09.537Z,993.11
2023-03-22T10:24:09.676Z,993.27
2023-03-22T10:25:09.856Z,993.23
2023-03-22T10:26:10.028Z,993.38
2023-03-22T10:27:12.909Z,993.44
2023-03-22T10:28:11.138Z,993.40
2023-03-22T10:29:10.585Z,993.37
2023-03-22T10:30:11.610Z,993.30
2023-03-22T10:31:11.636Z,993.24
2023-03-22T10:32:12.471Z,993.29
2023-03-22T10:33:11.240Z,993.32
2023-03-22T10:34:11.441Z,993.25
2023-03-22T10:35:12.618Z,993.21
2023-03-22T10:36:11.747Z,993.27
2023-03-22T10:37:12.659Z,993.32
2023-03-22T10:38:12.026Z,993.25
2023-03-22T10:39:13.013Z,993.17
2023-03-22T10:40:14.110Z,993.14
2023-03-22T10:41:12.592Z,993.07
2023-03-22T10:42:12.737Z,993.00
2023-03-22T10:43:13.665Z,993.01
2023-03-22T10:44:14.112Z,992.89
2023-03-22T10:45:14.147Z,993.11
2023-03-22T10:46:14.224Z,993.11
2023-03-22T10:47:13.652Z,993.11
2023-03-22T10:48:13.900Z,993.14
2023-03-22T10:49:13.966Z,993.24
2023-03-22T10:50:15.132Z,993.15
2023-03-22T10:51:14.315Z,993.31
2023-03-22T10:52:15.612Z,993.31
2023-03-22T10:53:15.990Z,993.32
2023-03-22T10:54:16.621Z,993.32
2023-03-22T10:55:14.869Z,993.28
2023-03-22T10:56:15.050Z,993.33
2023-03-22T10:57:15.242Z,993.42
2023-03-22T10:58:17.132Z,993.53
2023-03-22T10:59:15.622Z,993.55
2023-03-22T11:00:15.788Z,993.52
2023-03-22T11:01:16.097Z,993.51
2023-03-22T11:02:16.281Z,993.68
2023-03-22T11:03:17.119Z,993.68
2023-03-22T11:04:16.512Z,993.64
2023-03-22T11:05:16.673Z,993.80
2023-03-22T11:06:16.868Z,993.73
2023-03-22T11:07:17.068Z,993.71
2023-03-22T11:08:18.166Z,993.80
2023-03-22T11:09:17.677Z,993.79
2023-03-22T11:10:17.641Z,993.97
2023-03-22T11:11:17.699Z,993.99
2023-03-22T11:12:17.865Z,993.97
2023-03-22T11:13:18.677Z,994.10
2023-03-22T11:14:18.263Z,994.15
2023-03-22T11:15:19.990Z,994.17
2023-03-22T11:16:19.159Z,994.13
2023-03-22T11:17:19.666Z,994.26
2023-03-22T11:18:19.657Z,994.31
2023-03-22T11:19:20.093Z,994.50
2023-03-22T11:20:41.376Z,994.44
2023-03-22T11:21:21.168Z,994.45
2023-03-22T11:22:19.545Z,994.57
2023-03-22T11:23:21.795Z,994.60
2023-03-22T11:24:19.923Z,994.67
2023-03-22T11:25:20.131Z,994.68
2023-03-22T11:26:21.024Z,994.80
2023-03-22T11:27:21.180Z,994.80
2023-03-22T11:28:21.249Z,994.79
2023-03-22T11:29:20.940Z,994.80
2023-03-22T11:30:21.158Z,994.85
2023-03-22T11:31:21.699Z,994.97
2023-03-22T11:32:22.173Z,995.00
2023-03-22T11:33:21.720Z,994.96
2023-03-22T11:34:21.934Z,994.99
2023-03-22T11:35:22.141Z,995.10
2023-03-22T11:36:22.255Z,995.01
2023-03-22T11:37:22.392Z,995.06
2023-03-22T11:38:23.139Z,995.07
2023-03-22T11:39:22.676Z,995.07
2023-03-22T11:40:23.671Z,994.98
2023-03-22T11:41:23.676Z,995.10
2023-03-22T11:42:23.999Z,995.11
2023-03-22T11:43:23.312Z,995.09
2023-03-22T11:44:23.529Z,995.09
2023-03-22T11:45:24.640Z,995.06
2023-03-22T11:46:24.715Z,994.93
2023-03-22T11:47:25.163Z,995.08
2023-03-22T11:48:25.088Z,995.06
2023-03-22T11:49:25.177Z,995.14
2023-03-22T11:50:27.660Z,995.10
2023-03-22T11:51:25.639Z,995.13
2023-03-22T11:52:25.053Z,995.05
2023-03-22T11:53:26.690Z,995.05
2023-03-22T11:54:29.100Z,995.14
2023-03-22T11:55:26.613Z,995.16
2023-03-22T11:56:25.776Z,995.19
2023-03-22T11:57:25.968Z,995.23
2023-03-22T11:58:26.166Z,995.26
2023-03-22T11:59:28.156Z,995.30
2023-03-22T12:00:26.549Z,995.36
2023-03-22T12:01:26.699Z,995.30
2023-03-22T12:02:27.046Z,995.31
2023-03-22T12:03:27.808Z,995.32
2023-03-22T12:04:28.212Z,995.31
2023-03-22T12:05:28.181Z,995.25
2023-03-22T12:06:27.825Z,995.27
2023-03-22T12:07:27.936Z,995.22
2023-03-22T12:08:29.656Z,995.17
2023-03-22T12:09:28.320Z,995.15
2023-03-22T12:10:29.144Z,995.19
2023-03-22T12:11:30.520Z,995.21
2023-03-22T12:12:28.905Z,995.18
2023-03-22T12:13:29.715Z,995.23
2023-03-22T12:14:30.147Z,995.27
2023-03-22T12:15:29.483Z,995.35
2023-03-22T12:16:31.220Z,995.34
2023-03-22T12:17:29.823Z,995.42
2023-03-22T12:18:30.021Z,995.40
2023-03-22T12:19:30.224Z,995.48